sensor_id;sensor_type;location;lat;lon;timestamp;P1;durP1;ratioP1;P2;durP2;ratioP2
60016;SDS011;45869;52.698;6.210;2023-11-21T00:01:09;37.30;;;19.10;;
60016;SDS011;45869;52.698;6.210;2023-11-21T00:03:35;36.00;;;16.63;;
60016;SDS011;45869;52.698;6.210;2023-11-21T00:06:01;32.03;;;16.73;;
60016;SDS011;45869;52.698;6.210;2023-11-21T00:08:28;34.08;;;17.48;;
60016;SDS011;45869;52.698;6.210;2023-11-21T00:10:54;32.97;;;18.48;;
60016;SDS011;45869;52.698;6.210;2023-11-21T00:13:20;32.70;;;16.33;;
60016;SDS011;45869;52.698;6.210;2023-11-21T00:15:46;37.40;;;18.33;;
60016;SDS011;45869;52.698;6.210;2023-11-21T00:18:15;29.67;;;15.98;;
60016;SDS011;45869;52.698;6.210;2023-11-21T00:20:41;31.02;;;16.02;;
60016;SDS011;45869;52.698;6.210;2023-11-21T00:23:07;30.52;;;16.05;;
60016;SDS011;45869;52.698;6.210;2023-11-21T00:25:35;32.90;;;17.27;;
60016;SDS011;45869;52.698;6.210;2023-11-21T00:28:01;33.50;;;17.58;;
60016;SDS011;45869;52.698;6.210;2023-11-21T00:30:28;37.90;;;17.90;;
60016;SDS011;45869;52.698;6.210;2023-11-21T00:32:55;36.25;;;17.92;;
60016;SDS011;45869;52.698;6.210;2023-11-21T00:35:21;34.33;;;17.35;;
60016;SDS011;45869;52.698;6.210;2023-11-21T00:37:47;30.95;;;17.23;;
60016;SDS011;45869;52.698;6.210;2023-11-21T00:40:14;29.50;;;16.30;;
60016;SDS011;45869;52.698;6.210;2023-11-21T00:42:44;35.13;;;16.27;;
60016;SDS011;45869;52.698;6.210;2023-11-21T00:45:10;33.97;;;17.02;;
60016;SDS011;45869;52.698;6.210;2023-11-21T00:47:36;36.13;;;17.52;;
60016;SDS011;45869;52.698;6.210;2023-11-21T00:50:03;36.78;;;17.63;;
60016;SDS011;45869;52.698;6.210;2023-11-21T00:52:31;41.50;;;18.27;;
60016;SDS011;45869;52.698;6.210;2023-11-21T00:54:57;36.72;;;16.63;;
60016;SDS011;45869;52.698;6.210;2023-11-21T00:57:25;35.65;;;17.73;;
60016;SDS011;45869;52.698;6.210;2023-11-21T00:59:54;38.58;;;18.17;;
60016;SDS011;45869;52.698;6.210;2023-11-21T01:02:20;31.60;;;16.33;;
60016;SDS011;45869;52.698;6.210;2023-11-21T01:04:46;34.00;;;17.33;;
60016;SDS011;45869;52.698;6.210;2023-11-21T01:07:12;32.25;;;17.30;;
60016;SDS011;45869;52.698;6.210;2023-11-21T01:09:38;34.17;;;17.10;;
60016;SDS011;45869;52.698;6.210;2023-11-21T01:12:04;36.10;;;16.60;;
60016;SDS011;45869;52.698;6.210;2023-11-21T01:14:31;33.10;;;17.20;;
60016;SDS011;45869;52.698;6.210;2023-11-21T01:16:58;31.42;;;16.88;;
60016;SDS011;45869;52.698;6.210;2023-11-21T01:19:24;39.78;;;18.63;;
60016;SDS011;45869;52.698;6.210;2023-11-21T01:21:50;30.90;;;16.55;;
60016;SDS011;45869;52.698;6.210;2023-11-21T01:24:17;37.67;;;16.92;;
60016;SDS011;45869;52.698;6.210;2023-11-21T01:26:43;31.80;;;16.63;;
60016;SDS011;45869;52.698;6.210;2023-11-21T01:29:11;30.98;;;15.90;;
60016;SDS011;45869;52.698;6.210;2023-11-21T01:31:37;31.48;;;16.33;;
60016;SDS011;45869;52.698;6.210;2023-11-21T01:34:03;30.73;;;15.38;;
60016;SDS011;45869;52.698;6.210;2023-11-21T01:36:33;30.45;;;15.63;;
60016;SDS011;45869;52.698;6.210;2023-11-21T01:38:59;33.90;;;16.60;;
60016;SDS011;45869;52.698;6.210;2023-11-21T01:41:26;33.83;;;17.67;;
60016;SDS011;45869;52.698;6.210;2023-11-21T01:43:52;32.45;;;16.35;;
60016;SDS011;45869;52.698;6.210;2023-11-21T01:46:19;27.85;;;15.02;;
60016;SDS011;45869;52.698;6.210;2023-11-21T01:48:45;31.25;;;16.17;;
60016;SDS011;45869;52.698;6.210;2023-11-21T01:51:11;33.17;;;15.45;;
60016;SDS011;45869;52.698;6.210;2023-11-21T01:53:37;31.90;;;16.85;;
60016;SDS011;45869;52.698;6.210;2023-11-21T01:56:05;31.60;;;16.40;;
60016;SDS011;45869;52.698;6.210;2023-11-21T01:58:33;29.33;;;15.32;;
60016;SDS011;45869;52.698;6.210;2023-11-21T02:00:59;27.35;;;14.73;;
60016;SDS011;45869;52.698;6.210;2023-11-21T02:03:27;30.50;;;15.65;;
60016;SDS011;45869;52.698;6.210;2023-11-21T02:05:53;26.40;;;14.10;;
60016;SDS011;45869;52.698;6.210;2023-11-21T02:08:19;31.48;;;15.75;;
60016;SDS011;45869;52.698;6.210;2023-11-21T02:10:45;28.55;;;14.70;;
60016;SDS011;45869;52.698;6.210;2023-11-21T02:13:12;31.98;;;15.38;;
60016;SDS011;45869;52.698;6.210;2023-11-21T02:15:38;32.00;;;15.50;;
60016;SDS011;45869;52.698;6.210;2023-11-21T02:18:06;33.55;;;16.08;;
60016;SDS011;45869;52.698;6.210;2023-11-21T02:20:32;30.38;;;15.20;;
60016;SDS011;45869;52.698;6.210;2023-11-21T02:22:59;35.33;;;16.65;;
60016;SDS011;45869;52.698;6.210;2023-11-21T02:25:30;29.38;;;14.73;;
60016;SDS011;45869;52.698;6.210;2023-11-21T02:27:57;34.85;;;15.95;;
60016;SDS011;45869;52.698;6.210;2023-11-21T02:30:23;33.67;;;14.85;;
60016;SDS011;45869;52.698;6.210;2023-11-21T02:32:59;25.15;;;14.13;;
60016;SDS011;45869;52.698;6.210;2023-11-21T02:35:26;35.08;;;15.90;;
60016;SDS011;45869;52.698;6.210;2023-11-21T02:37:52;27.55;;;13.57;;
60016;SDS011;45869;52.698;6.210;2023-11-21T02:40:18;29.30;;;14.57;;
60016;SDS011;45869;52.698;6.210;2023-11-21T02:42:50;27.23;;;15.30;;
60016;SDS011;45869;52.698;6.210;2023-11-21T02:45:17;28.95;;;14.63;;
60016;SDS011;45869;52.698;6.210;2023-11-21T02:47:43;34.78;;;15.95;;
60016;SDS011;45869;52.698;6.210;2023-11-21T02:50:09;26.45;;;14.45;;
60016;SDS011;45869;52.698;6.210;2023-11-21T02:52:35;29.02;;;14.35;;
60016;SDS011;45869;52.698;6.210;2023-11-21T02:55:02;24.45;;;14.07;;
60016;SDS011;45869;52.698;6.210;2023-11-21T02:57:28;31.35;;;16.08;;
60016;SDS011;45869;52.698;6.210;2023-11-21T02:59:54;33.05;;;16.30;;
60016;SDS011;45869;52.698;6.210;2023-11-21T03:02:20;30.25;;;15.43;;
60016;SDS011;45869;52.698;6.210;2023-11-21T03:04:47;31.73;;;15.80;;
60016;SDS011;45869;52.698;6.210;2023-11-21T03:07:14;29.05;;;15.30;;
60016;SDS011;45869;52.698;6.210;2023-11-21T03:09:40;27.65;;;14.65;;
60016;SDS011;45869;52.698;6.210;2023-11-21T03:12:06;26.55;;;15.95;;
60016;SDS011;45869;52.698;6.210;2023-11-21T03:14:33;31.60;;;16.20;;
60016;SDS011;45869;52.698;6.210;2023-11-21T03:16:59;37.92;;;17.40;;
60016;SDS011;45869;52.698;6.210;2023-11-21T03:19:29;33.78;;;17.30;;
60016;SDS011;45869;52.698;6.210;2023-11-21T03:21:55;29.55;;;17.35;;
60016;SDS011;45869;52.698;6.210;2023-11-21T03:24:21;38.30;;;20.63;;
60016;SDS011;45869;52.698;6.210;2023-11-21T03:26:47;34.92;;;18.65;;
60016;SDS011;45869;52.698;6.210;2023-11-21T03:29:14;34.22;;;20.02;;
60016;SDS011;45869;52.698;6.210;2023-11-21T03:31:40;34.22;;;19.15;;
60016;SDS011;45869;52.698;6.210;2023-11-21T03:34:06;34.17;;;18.13;;
60016;SDS011;45869;52.698;6.210;2023-11-21T03:36:32;40.05;;;19.75;;
60016;SDS011;45869;52.698;6.210;2023-11-21T03:38:58;37.53;;;19.50;;
60016;SDS011;45869;52.698;6.210;2023-11-21T03:41:24;36.13;;;19.77;;
60016;SDS011;45869;52.698;6.210;2023-11-21T03:43:50;35.28;;;19.83;;
60016;SDS011;45869;52.698;6.210;2023-11-21T03:46:16;35.83;;;20.45;;
60016;SDS011;45869;52.698;6.210;2023-11-21T03:48:42;35.45;;;19.58;;
60016;SDS011;45869;52.698;6.210;2023-11-21T03:51:08;38.97;;;21.73;;
60016;SDS011;45869;52.698;6.210;2023-11-21T03:53:34;31.13;;;18.42;;
60016;SDS011;45869;52.698;6.210;2023-11-21T03:56:01;29.10;;;17.38;;
60016;SDS011;45869;52.698;6.210;2023-11-21T03:58:27;33.08;;;18.83;;
60016;SDS011;45869;52.698;6.210;2023-11-21T04:00:53;32.45;;;18.80;;
60016;SDS011;45869;52.698;6.210;2023-11-21T04:03:19;30.30;;;19.02;;
60016;SDS011;45869;52.698;6.210;2023-11-21T04:05:45;29.75;;;17.67;;
60016;SDS011;45869;52.698;6.210;2023-11-21T04:08:12;32.42;;;18.55;;
60016;SDS011;45869;52.698;6.210;2023-11-21T04:10:38;29.20;;;18.42;;
60016;SDS011;45869;52.698;6.210;2023-11-21T04:13:04;39.78;;;21.00;;
60016;SDS011;45869;52.698;6.210;2023-11-21T04:15:31;34.00;;;19.23;;
60016;SDS011;45869;52.698;6.210;2023-11-21T04:17:57;34.72;;;20.20;;
60016;SDS011;45869;52.698;6.210;2023-11-21T04:20:23;31.55;;;18.98;;
60016;SDS011;45869;52.698;6.210;2023-11-21T04:22:49;31.83;;;19.30;;
60016;SDS011;45869;52.698;6.210;2023-11-21T04:25:15;31.45;;;19.67;;
60016;SDS011;45869;52.698;6.210;2023-11-21T04:27:45;42.80;;;21.95;;
60016;SDS011;45869;52.698;6.210;2023-11-21T04:30:11;30.17;;;17.70;;
60016;SDS011;45869;52.698;6.210;2023-11-21T04:32:37;32.90;;;19.38;;
60016;SDS011;45869;52.698;6.210;2023-11-21T04:35:09;35.60;;;19.40;;
60016;SDS011;45869;52.698;6.210;2023-11-21T04:37:36;34.63;;;19.23;;
60016;SDS011;45869;52.698;6.210;2023-11-21T04:40:02;31.40;;;19.42;;
60016;SDS011;45869;52.698;6.210;2023-11-21T04:42:32;30.13;;;17.73;;
60016;SDS011;45869;52.698;6.210;2023-11-21T04:44:58;30.48;;;17.50;;
60016;SDS011;45869;52.698;6.210;2023-11-21T04:47:24;31.40;;;18.52;;
60016;SDS011;45869;52.698;6.210;2023-11-21T04:49:50;31.73;;;18.40;;
60016;SDS011;45869;52.698;6.210;2023-11-21T04:52:17;30.98;;;17.55;;
60016;SDS011;45869;52.698;6.210;2023-11-21T04:54:43;28.40;;;17.40;;
60016;SDS011;45869;52.698;6.210;2023-11-21T04:57:09;29.38;;;18.50;;
60016;SDS011;45869;52.698;6.210;2023-11-21T04:59:35;31.08;;;18.13;;
60016;SDS011;45869;52.698;6.210;2023-11-21T05:02:01;46.08;;;22.48;;
60016;SDS011;45869;52.698;6.210;2023-11-21T05:04:28;37.80;;;20.58;;
60016;SDS011;45869;52.698;6.210;2023-11-21T05:06:54;41.40;;;21.73;;
60016;SDS011;45869;52.698;6.210;2023-11-21T05:09:25;40.58;;;21.67;;
60016;SDS011;45869;52.698;6.210;2023-11-21T05:11:53;35.83;;;20.73;;
60016;SDS011;45869;52.698;6.210;2023-11-21T05:14:19;39.13;;;21.35;;
60016;SDS011;45869;52.698;6.210;2023-11-21T05:16:46;35.92;;;20.20;;
60016;SDS011;45869;52.698;6.210;2023-11-21T05:19:12;52.47;;;22.60;;
60016;SDS011;45869;52.698;6.210;2023-11-21T05:21:38;40.42;;;21.30;;
60016;SDS011;45869;52.698;6.210;2023-11-21T05:24:04;34.38;;;18.35;;
60016;SDS011;45869;52.698;6.210;2023-11-21T05:26:30;47.03;;;22.88;;
60016;SDS011;45869;52.698;6.210;2023-11-21T05:28:56;54.25;;;25.02;;
60016;SDS011;45869;52.698;6.210;2023-11-21T05:31:22;53.13;;;24.75;;
60016;SDS011;45869;52.698;6.210;2023-11-21T05:33:48;41.33;;;22.23;;
60016;SDS011;45869;52.698;6.210;2023-11-21T05:36:14;45.50;;;21.92;;
60016;SDS011;45869;52.698;6.210;2023-11-21T05:38:40;45.88;;;23.30;;
60016;SDS011;45869;52.698;6.210;2023-11-21T05:41:06;48.33;;;23.73;;
60016;SDS011;45869;52.698;6.210;2023-11-21T05:43:36;46.10;;;22.00;;
60016;SDS011;45869;52.698;6.210;2023-11-21T05:46:01;45.72;;;23.63;;
60016;SDS011;45869;52.698;6.210;2023-11-21T05:48:27;37.20;;;20.20;;
60016;SDS011;45869;52.698;6.210;2023-11-21T05:50:56;42.72;;;22.05;;
60016;SDS011;45869;52.698;6.210;2023-11-21T05:53:23;51.00;;;24.98;;
60016;SDS011;45869;52.698;6.210;2023-11-21T05:55:50;45.95;;;23.02;;
60016;SDS011;45869;52.698;6.210;2023-11-21T05:58:16;40.20;;;20.90;;
60016;SDS011;45869;52.698;6.210;2023-11-21T06:00:42;43.65;;;22.30;;
60016;SDS011;45869;52.698;6.210;2023-11-21T06:03:08;63.42;;;26.98;;
60016;SDS011;45869;52.698;6.210;2023-11-21T06:05:34;56.47;;;25.95;;
60016;SDS011;45869;52.698;6.210;2023-11-21T06:08:00;48.35;;;23.23;;
60016;SDS011;45869;52.698;6.210;2023-11-21T06:10:26;46.65;;;24.25;;
60016;SDS011;45869;52.698;6.210;2023-11-21T06:12:53;45.50;;;22.48;;
60016;SDS011;45869;52.698;6.210;2023-11-21T06:15:19;55.45;;;26.45;;
60016;SDS011;45869;52.698;6.210;2023-11-21T06:17:47;46.97;;;23.33;;
60016;SDS011;45869;52.698;6.210;2023-11-21T06:20:17;48.30;;;24.02;;
60016;SDS011;45869;52.698;6.210;2023-11-21T06:22:43;45.75;;;23.60;;
60016;SDS011;45869;52.698;6.210;2023-11-21T06:25:10;62.25;;;26.75;;
60016;SDS011;45869;52.698;6.210;2023-11-21T06:27:38;51.58;;;25.23;;
60016;SDS011;45869;52.698;6.210;2023-11-21T06:30:05;53.10;;;24.55;;
60016;SDS011;45869;52.698;6.210;2023-11-21T06:32:35;46.05;;;24.08;;
60016;SDS011;45869;52.698;6.210;2023-11-21T06:35:01;85.03;;;30.08;;
60016;SDS011;45869;52.698;6.210;2023-11-21T06:37:29;72.45;;;28.15;;
60016;SDS011;45869;52.698;6.210;2023-11-21T06:39:55;43.40;;;23.65;;
60016;SDS011;45869;52.698;6.210;2023-11-21T06:42:23;58.63;;;26.35;;
60016;SDS011;45869;52.698;6.210;2023-11-21T06:44:49;72.68;;;29.05;;
60016;SDS011;45869;52.698;6.210;2023-11-21T06:47:17;62.30;;;26.45;;
60016;SDS011;45869;52.698;6.210;2023-11-21T06:49:43;52.28;;;25.33;;
60016;SDS011;45869;52.698;6.210;2023-11-21T06:52:18;43.70;;;23.20;;
60016;SDS011;45869;52.698;6.210;2023-11-21T06:54:44;51.33;;;24.45;;
60016;SDS011;45869;52.698;6.210;2023-11-21T06:57:11;37.58;;;21.33;;
60016;SDS011;45869;52.698;6.210;2023-11-21T06:59:37;45.90;;;22.50;;
60016;SDS011;45869;52.698;6.210;2023-11-21T07:02:03;40.10;;;21.42;;
60016;SDS011;45869;52.698;6.210;2023-11-21T07:04:32;50.05;;;23.67;;
60016;SDS011;45869;52.698;6.210;2023-11-21T07:06:58;40.00;;;22.40;;
60016;SDS011;45869;52.698;6.210;2023-11-21T07:09:24;46.08;;;23.73;;
60016;SDS011;45869;52.698;6.210;2023-11-21T07:11:51;39.58;;;21.77;;
60016;SDS011;45869;52.698;6.210;2023-11-21T07:14:17;40.60;;;21.98;;
60016;SDS011;45869;52.698;6.210;2023-11-21T07:16:44;54.92;;;25.48;;
60016;SDS011;45869;52.698;6.210;2023-11-21T07:19:10;40.05;;;21.83;;
60016;SDS011;45869;52.698;6.210;2023-11-21T07:21:39;57.95;;;24.90;;
60016;SDS011;45869;52.698;6.210;2023-11-21T07:24:05;48.83;;;24.42;;
60016;SDS011;45869;52.698;6.210;2023-11-21T07:26:32;56.35;;;25.52;;
60016;SDS011;45869;52.698;6.210;2023-11-21T07:28:58;46.78;;;23.17;;
60016;SDS011;45869;52.698;6.210;2023-11-21T07:31:25;41.47;;;22.83;;
60016;SDS011;45869;52.698;6.210;2023-11-21T07:33:51;41.50;;;22.77;;
60016;SDS011;45869;52.698;6.210;2023-11-21T07:36:18;48.38;;;25.50;;
60016;SDS011;45869;52.698;6.210;2023-11-21T07:38:45;44.58;;;23.88;;
60016;SDS011;45869;52.698;6.210;2023-11-21T07:41:12;51.97;;;25.58;;
60016;SDS011;45869;52.698;6.210;2023-11-21T07:43:40;56.92;;;26.80;;
60016;SDS011;45869;52.698;6.210;2023-11-21T07:46:07;53.78;;;26.75;;
60016;SDS011;45869;52.698;6.210;2023-11-21T07:48:36;38.78;;;21.92;;
60016;SDS011;45869;52.698;6.210;2023-11-21T07:51:02;38.42;;;22.00;;
60016;SDS011;45869;52.698;6.210;2023-11-21T07:53:34;43.72;;;22.58;;
60016;SDS011;45869;52.698;6.210;2023-11-21T07:56:04;39.03;;;20.90;;
60016;SDS011;45869;52.698;6.210;2023-11-21T07:58:30;34.17;;;18.38;;
60016;SDS011;45869;52.698;6.210;2023-11-21T08:00:58;28.38;;;17.20;;
60016;SDS011;45869;52.698;6.210;2023-11-21T08:03:24;24.70;;;15.20;;
60016;SDS011;45869;52.698;6.210;2023-11-21T08:05:54;25.08;;;14.90;;
60016;SDS011;45869;52.698;6.210;2023-11-21T08:08:20;24.55;;;14.40;;
60016;SDS011;45869;52.698;6.210;2023-11-21T08:10:46;24.60;;;14.75;;
60016;SDS011;45869;52.698;6.210;2023-11-21T08:13:13;22.83;;;13.35;;
60016;SDS011;45869;52.698;6.210;2023-11-21T08:15:41;27.63;;;14.75;;
60016;SDS011;45869;52.698;6.210;2023-11-21T08:18:11;21.27;;;13.52;;
60016;SDS011;45869;52.698;6.210;2023-11-21T08:20:37;19.13;;;12.95;;
60016;SDS011;45869;52.698;6.210;2023-11-21T08:23:05;23.88;;;13.43;;
60016;SDS011;45869;52.698;6.210;2023-11-21T08:25:31;19.65;;;11.25;;
60016;SDS011;45869;52.698;6.210;2023-11-21T08:27:58;19.23;;;11.65;;
60016;SDS011;45869;52.698;6.210;2023-11-21T08:30:24;18.00;;;11.10;;
60016;SDS011;45869;52.698;6.210;2023-11-21T08:32:52;18.05;;;11.32;;
60016;SDS011;45869;52.698;6.210;2023-11-21T08:35:18;19.35;;;10.75;;
60016;SDS011;45869;52.698;6.210;2023-11-21T08:37:47;19.00;;;11.38;;
60016;SDS011;45869;52.698;6.210;2023-11-21T08:40:13;15.05;;;10.02;;
60016;SDS011;45869;52.698;6.210;2023-11-21T08:42:41;19.35;;;11.75;;
60016;SDS011;45869;52.698;6.210;2023-11-21T08:45:14;23.42;;;13.00;;
60016;SDS011;45869;52.698;6.210;2023-11-21T08:47:42;20.70;;;12.45;;
60016;SDS011;45869;52.698;6.210;2023-11-21T08:50:09;21.33;;;12.75;;
60016;SDS011;45869;52.698;6.210;2023-11-21T08:52:37;20.75;;;13.45;;
60016;SDS011;45869;52.698;6.210;2023-11-21T08:55:04;22.70;;;13.65;;
60016;SDS011;45869;52.698;6.210;2023-11-21T08:57:33;22.23;;;13.32;;
60016;SDS011;45869;52.698;6.210;2023-11-21T09:00:00;24.50;;;13.85;;
60016;SDS011;45869;52.698;6.210;2023-11-21T09:02:26;24.63;;;13.93;;
60016;SDS011;45869;52.698;6.210;2023-11-21T09:04:52;23.92;;;14.07;;
60016;SDS011;45869;52.698;6.210;2023-11-21T09:07:18;21.30;;;13.85;;
60016;SDS011;45869;52.698;6.210;2023-11-21T09:09:47;23.60;;;14.32;;
60016;SDS011;45869;52.698;6.210;2023-11-21T09:12:14;24.52;;;14.65;;
60016;SDS011;45869;52.698;6.210;2023-11-21T09:14:43;24.10;;;14.02;;
60016;SDS011;45869;52.698;6.210;2023-11-21T09:17:09;23.90;;;13.93;;
60016;SDS011;45869;52.698;6.210;2023-11-21T09:19:39;23.88;;;14.00;;
60016;SDS011;45869;52.698;6.210;2023-11-21T09:22:06;24.48;;;13.63;;
60016;SDS011;45869;52.698;6.210;2023-11-21T09:24:32;24.33;;;14.02;;
60016;SDS011;45869;52.698;6.210;2023-11-21T09:26:58;23.50;;;13.15;;
60016;SDS011;45869;52.698;6.210;2023-11-21T09:29:25;24.10;;;13.70;;
60016;SDS011;45869;52.698;6.210;2023-11-21T09:31:51;23.20;;;13.10;;
60016;SDS011;45869;52.698;6.210;2023-11-21T09:34:17;22.45;;;13.25;;
60016;SDS011;45869;52.698;6.210;2023-11-21T09:36:47;21.23;;;12.55;;
60016;SDS011;45869;52.698;6.210;2023-11-21T09:39:13;26.08;;;12.70;;
60016;SDS011;45869;52.698;6.210;2023-11-21T09:41:43;20.98;;;12.18;;
60016;SDS011;45869;52.698;6.210;2023-11-21T09:44:11;24.58;;;13.23;;
60016;SDS011;45869;52.698;6.210;2023-11-21T09:46:42;21.95;;;12.15;;
60016;SDS011;45869;52.698;6.210;2023-11-21T09:49:11;22.08;;;12.10;;
60016;SDS011;45869;52.698;6.210;2023-11-21T09:51:42;20.90;;;11.98;;
60016;SDS011;45869;52.698;6.210;2023-11-21T09:54:09;21.42;;;12.02;;
60016;SDS011;45869;52.698;6.210;2023-11-21T09:56:39;20.42;;;11.30;;
60016;SDS011;45869;52.698;6.210;2023-11-21T09:59:05;20.33;;;11.57;;
60016;SDS011;45869;52.698;6.210;2023-11-21T10:01:35;24.67;;;12.25;;
60016;SDS011;45869;52.698;6.210;2023-11-21T10:04:04;23.83;;;11.45;;
60016;SDS011;45869;52.698;6.210;2023-11-21T10:06:36;20.27;;;11.40;;
60016;SDS011;45869;52.698;6.210;2023-11-21T10:09:06;20.17;;;11.27;;
60016;SDS011;45869;52.698;6.210;2023-11-21T10:11:36;22.75;;;11.85;;
60016;SDS011;45869;52.698;6.210;2023-11-21T10:14:03;20.85;;;11.88;;
60016;SDS011;45869;52.698;6.210;2023-11-21T10:16:30;19.08;;;11.35;;
60016;SDS011;45869;52.698;6.210;2023-11-21T10:18:57;23.05;;;11.80;;
60016;SDS011;45869;52.698;6.210;2023-11-21T10:21:24;21.65;;;11.20;;
60016;SDS011;45869;52.698;6.210;2023-11-21T10:23:51;23.15;;;12.35;;
60016;SDS011;45869;52.698;6.210;2023-11-21T10:26:18;25.23;;;14.55;;
60016;SDS011;45869;52.698;6.210;2023-11-21T10:28:58;36.13;;;19.33;;
60016;SDS011;45869;52.698;6.210;2023-11-21T10:31:28;36.75;;;20.88;;
60016;SDS011;45869;52.698;6.210;2023-11-21T10:33:55;44.58;;;23.23;;
60016;SDS011;45869;52.698;6.210;2023-11-21T10:36:42;41.20;;;22.10;;
60016;SDS011;45869;52.698;6.210;2023-11-21T10:39:08;42.47;;;23.77;;
60016;SDS011;45869;52.698;6.210;2023-11-21T10:41:35;38.55;;;21.58;;
60016;SDS011;45869;52.698;6.210;2023-11-21T10:44:01;37.63;;;22.02;;
60016;SDS011;45869;52.698;6.210;2023-11-21T10:46:34;36.23;;;21.20;;
60016;SDS011;45869;52.698;6.210;2023-11-21T10:49:00;40.20;;;20.70;;
60016;SDS011;45869;52.698;6.210;2023-11-21T10:51:27;32.10;;;19.67;;
60016;SDS011;45869;52.698;6.210;2023-11-21T10:53:53;31.90;;;19.45;;
60016;SDS011;45869;52.698;6.210;2023-11-21T10:56:19;30.25;;;18.88;;
60016;SDS011;45869;52.698;6.210;2023-11-21T10:58:51;29.83;;;18.33;;
60016;SDS011;45869;52.698;6.210;2023-11-21T11:01:18;25.67;;;17.50;;
60016;SDS011;45869;52.698;6.210;2023-11-21T11:03:51;27.47;;;18.13;;
60016;SDS011;45869;52.698;6.210;2023-11-21T11:06:19;29.48;;;18.67;;
60016;SDS011;45869;52.698;6.210;2023-11-21T11:08:46;28.10;;;19.13;;
60016;SDS011;45869;52.698;6.210;2023-11-21T11:11:13;30.15;;;19.60;;
60016;SDS011;45869;52.698;6.210;2023-11-21T11:13:42;26.65;;;18.38;;
60016;SDS011;45869;52.698;6.210;2023-11-21T11:16:10;28.13;;;19.52;;
60016;SDS011;45869;52.698;6.210;2023-11-21T11:18:42;26.20;;;18.38;;
60016;SDS011;45869;52.698;6.210;2023-11-21T11:21:19;27.73;;;19.30;;
60016;SDS011;45869;52.698;6.210;2023-11-21T11:29:27;25.17;;;18.00;;
60016;SDS011;45869;52.698;6.210;2023-11-21T11:34:34;23.20;;;16.98;;
60016;SDS011;45869;52.698;6.210;2023-11-21T11:37:02;24.75;;;16.73;;
60016;SDS011;45869;52.698;6.210;2023-11-21T11:39:35;22.20;;;15.73;;
60016;SDS011;45869;52.698;6.210;2023-11-21T11:42:06;22.77;;;15.95;;
60016;SDS011;45869;52.698;6.210;2023-11-21T11:52:42;23.23;;;16.10;;
60016;SDS011;45869;52.698;6.210;2023-11-21T11:55:14;24.33;;;15.95;;
60016;SDS011;45869;52.698;6.210;2023-11-21T11:57:45;26.15;;;17.02;;
60016;SDS011;45869;52.698;6.210;2023-11-21T12:00:20;24.55;;;16.33;;
60016;SDS011;45869;52.698;6.210;2023-11-21T12:02:53;26.85;;;18.05;;
60016;SDS011;45869;52.698;6.210;2023-11-21T12:05:21;24.95;;;17.08;;
60016;SDS011;45869;52.698;6.210;2023-11-21T12:07:55;22.92;;;16.23;;
60016;SDS011;45869;52.698;6.210;2023-11-21T12:10:26;21.83;;;15.13;;
60016;SDS011;45869;52.698;6.210;2023-11-21T12:12:54;24.65;;;15.77;;
60016;SDS011;45869;52.698;6.210;2023-11-21T12:15:21;23.88;;;15.98;;
60016;SDS011;45869;52.698;6.210;2023-11-21T12:17:47;21.42;;;15.68;;
60016;SDS011;45869;52.698;6.210;2023-11-21T12:20:14;20.45;;;14.88;;
60016;SDS011;45869;52.698;6.210;2023-11-21T12:22:45;20.50;;;14.10;;
60016;SDS011;45869;52.698;6.210;2023-11-21T12:25:25;17.85;;;13.60;;
60016;SDS011;45869;52.698;6.210;2023-11-21T12:27:54;20.20;;;12.50;;
60016;SDS011;45869;52.698;6.210;2023-11-21T12:30:24;14.00;;;11.07;;
60016;SDS011;45869;52.698;6.210;2023-11-21T12:32:53;17.25;;;11.35;;
60016;SDS011;45869;52.698;6.210;2023-11-21T12:35:21;15.38;;;11.00;;
60016;SDS011;45869;52.698;6.210;2023-11-21T12:37:47;15.88;;;11.48;;
60016;SDS011;45869;52.698;6.210;2023-11-21T12:40:14;13.18;;;10.73;;
60016;SDS011;45869;52.698;6.210;2023-11-21T12:42:42;14.73;;;10.27;;
60016;SDS011;45869;52.698;6.210;2023-11-21T12:45:09;14.98;;;11.30;;
60016;SDS011;45869;52.698;6.210;2023-11-21T12:47:43;12.65;;;10.20;;
60016;SDS011;45869;52.698;6.210;2023-11-21T12:50:09;13.40;;;9.73;;
60016;SDS011;45869;52.698;6.210;2023-11-21T12:52:49;13.35;;;9.90;;
60016;SDS011;45869;52.698;6.210;2023-11-21T12:55:16;12.25;;;9.40;;
60016;SDS011;45869;52.698;6.210;2023-11-21T12:57:43;12.68;;;9.32;;
60016;SDS011;45869;52.698;6.210;2023-11-21T13:00:09;12.82;;;9.98;;
60016;SDS011;45869;52.698;6.210;2023-11-21T13:02:40;13.05;;;9.50;;
60016;SDS011;45869;52.698;6.210;2023-11-21T13:05:08;11.75;;;9.50;;
60016;SDS011;45869;52.698;6.210;2023-11-21T13:07:43;10.88;;;8.70;;
60016;SDS011;45869;52.698;6.210;2023-11-21T13:10:13;9.85;;;8.15;;
60016;SDS011;45869;52.698;6.210;2023-11-21T13:12:43;11.20;;;8.88;;
60016;SDS011;45869;52.698;6.210;2023-11-21T13:15:13;11.93;;;8.93;;
60016;SDS011;45869;52.698;6.210;2023-11-21T13:17:41;10.30;;;7.75;;
60016;SDS011;45869;52.698;6.210;2023-11-21T13:20:12;9.95;;;7.82;;
60016;SDS011;45869;52.698;6.210;2023-11-21T13:22:45;11.13;;;8.27;;
60016;SDS011;45869;52.698;6.210;2023-11-21T13:25:11;12.25;;;8.60;;
60016;SDS011;45869;52.698;6.210;2023-11-21T13:27:39;10.50;;;8.35;;
60016;SDS011;45869;52.698;6.210;2023-11-21T13:30:08;10.30;;;8.02;;
60016;SDS011;45869;52.698;6.210;2023-11-21T13:32:36;11.40;;;8.07;;
60016;SDS011;45869;52.698;6.210;2023-11-21T13:35:05;11.70;;;8.50;;
60016;SDS011;45869;52.698;6.210;2023-11-21T13:37:37;11.93;;;8.77;;
60016;SDS011;45869;52.698;6.210;2023-11-21T13:40:03;11.00;;;7.85;;
60016;SDS011;45869;52.698;6.210;2023-11-21T13:42:39;10.73;;;8.07;;
60016;SDS011;45869;52.698;6.210;2023-11-21T13:45:06;10.27;;;7.78;;
60016;SDS011;45869;52.698;6.210;2023-11-21T13:47:32;10.35;;;7.50;;
60016;SDS011;45869;52.698;6.210;2023-11-21T13:49:59;10.73;;;7.90;;
60016;SDS011;45869;52.698;6.210;2023-11-21T13:52:26;10.75;;;8.00;;
60016;SDS011;45869;52.698;6.210;2023-11-21T13:54:53;11.30;;;7.90;;
60016;SDS011;45869;52.698;6.210;2023-11-21T13:57:19;9.60;;;7.18;;
60016;SDS011;45869;52.698;6.210;2023-11-21T13:59:46;10.10;;;7.53;;
60016;SDS011;45869;52.698;6.210;2023-11-21T14:02:12;10.63;;;7.72;;
60016;SDS011;45869;52.698;6.210;2023-11-21T14:04:45;10.68;;;7.55;;
60016;SDS011;45869;52.698;6.210;2023-11-21T14:07:23;10.02;;;7.13;;
60016;SDS011;45869;52.698;6.210;2023-11-21T14:09:57;9.68;;;7.05;;
60016;SDS011;45869;52.698;6.210;2023-11-21T14:12:24;10.95;;;7.72;;
60016;SDS011;45869;52.698;6.210;2023-11-21T14:14:50;9.70;;;7.43;;
60016;SDS011;45869;52.698;6.210;2023-11-21T14:17:16;10.10;;;6.90;;
60016;SDS011;45869;52.698;6.210;2023-11-21T14:19:42;10.25;;;7.32;;
60016;SDS011;45869;52.698;6.210;2023-11-21T14:22:11;9.32;;;7.05;;
60016;SDS011;45869;52.698;6.210;2023-11-21T14:24:37;9.65;;;6.85;;
60016;SDS011;45869;52.698;6.210;2023-11-21T14:27:09;10.07;;;7.47;;
60016;SDS011;45869;52.698;6.210;2023-11-21T14:29:35;9.73;;;7.38;;
60016;SDS011;45869;52.698;6.210;2023-11-21T14:32:04;9.30;;;7.13;;
60016;SDS011;45869;52.698;6.210;2023-11-21T14:34:30;10.52;;;7.57;;
60016;SDS011;45869;52.698;6.210;2023-11-21T14:36:56;9.00;;;6.50;;
60016;SDS011;45869;52.698;6.210;2023-11-21T14:39:22;10.60;;;7.07;;
60016;SDS011;45869;52.698;6.210;2023-11-21T14:41:51;9.45;;;6.78;;